createdAt,value
2023-03-27T04:40:51.745Z,99099.27
2023-03-27T04:43:18.836Z,99099.48
2023-03-27T04:45:47.474Z,99103.83
2023-03-27T04:48:17.482Z,99106.98
2023-03-27T04:50:50.147Z,99112.38
2023-03-27T04:53:31.677Z,99115.00
2023-03-27T04:56:00.562Z,99117.27
2023-03-27T04:58:27.791Z,99123.34
2023-03-27T05:00:56.788Z,99129.95
2023-03-27T05:03:25.399Z,99130.51
2023-03-27T05:05:58.932Z,99134.17
2023-03-27T05:08:26.843Z,99137.16
2023-03-27T05:10:54.541Z,99136.50
2023-03-27T05:13:22.460Z,99141.20
2023-03-27T05:15:50.189Z,99137.46
2023-03-27T05:18:18.464Z,99139.93
2023-03-27T05:20:50.179Z,99139.29
2023-03-27T05:23:18.454Z,99138.98
2023-03-27T05:25:59.805Z,99141.96
2023-03-27T05:28:39.194Z,99137.67
2023-03-27T05:31:10.112Z,99134.08
2023-03-27T05:33:48.116Z,99133.05
2023-03-27T05:36:30.749Z,99132.54
2023-03-27T05:39:22.790Z,99129.30
2023-03-27T05:42:00.786Z,99128.25
2023-03-27T05:44:33.461Z,99125.98
2023-03-27T05:47:00.581Z,99122.50
2023-03-27T05:49:33.543Z,99121.60
2023-03-27T05:52:15.549Z,99122.77
2023-03-27T05:54:42.307Z,99125.51
2023-03-27T05:57:16.202Z,99127.35
2023-03-27T05:59:45.145Z,99127.98
2023-03-27T06:02:21.297Z,99133.98
2023-03-27T06:05:01.167Z,99135.45
2023-03-27T06:07:34.738Z,99136.60
2023-03-27T06:10:07.263Z,99138.42
2023-03-27T06:13:03.183Z,99142.70
2023-03-27T06:15:37.065Z,99145.02
2023-03-27T06:18:14.999Z,99142.29
2023-03-27T06:20:42.894Z,99142.34
2023-03-27T06:23:09.975Z,99144.67
2023-03-27T06:25:38.623Z,99148.23
2023-03-27T06:28:09.923Z,99145.39
2023-03-27T06:30:48.052Z,99149.83
2023-03-27T06:33:46.726Z,99152.83
2023-03-27T06:36:28.167Z,99153.46
2023-03-27T06:38:55.866Z,99156.70
2023-03-27T06:41:23.086Z,99160.11
2023-03-27T06:44:07.301Z,99161.57
2023-03-27T06:46:53.601Z,99165.98
2023-03-27T06:49:29.499Z,99166.20
2023-03-27T06:52:00.956Z,99166.60
2023-03-27T06:54:28.764Z,99169.27
2023-03-27T06:56:55.611Z,99168.28
2023-03-27T06:59:23.160Z,99169.36
2023-03-27T07:01:54.746Z,99171.34
2023-03-27T07:04:54.243Z,99171.40
2023-03-27T07:07:34.223Z,99171.59
2023-03-27T07:10:02.089Z,99173.34
2023-03-27T07:12:32.004Z,99177.73
2023-03-27T07:14:58.721Z,99178.48
2023-03-27T07:17:34.888Z,99171.73
2023-03-27T07:20:16.929Z,99169.15
2023-03-27T07:22:44.280Z,99169.70
2023-03-27T07:25:24.717Z,99165.88
2023-03-27T07:27:51.604Z,99163.56
2023-03-27T07:30:18.375Z,99165.25
2023-03-27T07:32:57.215Z,99160.71
2023-03-27T07:35:24.760Z,99162.45
2023-03-27T07:38:11.300Z,99162.77
2023-03-27T07:40:42.550Z,99163.95
2023-03-27T07:43:38.464Z,99166.15
2023-03-27T07:46:07.310Z,99163.17
2023-03-27T07:48:35.220Z,99156.96
2023-03-27T07:51:13.938Z,99154.29
2023-03-27T07:53:41.047Z,99150.20
2023-03-27T07:56:20.365Z,99151.91
2023-03-27T07:58:48.420Z,99152.88
2023-03-27T08:01:19.846Z,99154.55
2023-03-27T08:03:50.309Z,99155.78
2023-03-27T08:06:18.316Z,99147.59
2023-03-27T08:08:45.577Z,99141.08
2023-03-27T08:11:23.247Z,99138.17
2023-03-27T08:13:57.882Z,99140.81
2023-03-27T08:16:28.309Z,99139.78
2023-03-27T08:18:57.056Z,99139.48
2023-03-27T08:21:23.999Z,99142.61
2023-03-27T08:23:56.165Z,99146.76
2023-03-27T08:26:34.618Z,99147.11
2023-03-27T08:29:08.274Z,99146.90
2023-03-27T08:31:35.374Z,99150.38
2023-03-27T08:34:03.993Z,99144.66
2023-03-27T08:36:40.616Z,99142.72
2023-03-27T08:39:08.236Z,99145.52
2023-03-27T08:42:17.173Z,99143.55
2023-03-27T08:44:52.454Z,99141.14
2023-03-27T08:47:33.399Z,99140.98
2023-03-27T08:50:06.575Z,99141.86
2023-03-27T08:52:45.644Z,99140.95
2023-03-27T08:55:21.677Z,99142.91
2023-03-27T08:57:54.243Z,99143.23
2023-03-27T09:00:24.965Z,99143.14
2023-03-27T09:03:01.148Z,99136.58
2023-03-27T09:05:48.731Z,99138.00
2023-03-27T09:08:20.690Z,99135.85
2023-03-27T09:10:51.314Z,99138.09
2023-03-27T09:13:42.116Z,99133.85
2023-03-27T09:16:28.449Z,99134.48
2023-03-27T09:18:59.039Z,99128.46
2023-03-27T09:21:41.070Z,99128.15
2023-03-27T09:24:13.212Z,99128.85
2023-03-27T09:27:23.689Z,99127.55
2023-03-27T09:30:05.840Z,99128.28
2023-03-27T09:32:55.673Z,99116.14
2023-03-27T09:35:23.030Z,99117.27
2023-03-27T09:37:58.650Z,99117.86
2023-03-27T09:40:30.074Z,99116.63
2023-03-27T09:42:59.093Z,99123.17
2023-03-27T09:45:25.682Z,99115.92
2023-03-27T09:48:03.390Z,99113.52
2023-03-27T09:50:43.892Z,99121.25
2023-03-27T09:53:18.377Z,99124.33
2023-03-27T09:56:04.791Z,99123.73
2023-03-27T09:58:43.309Z,99124.79
2023-03-27T10:01:12.662Z,99121.65
2023-03-27T10:03:42.308Z,99123.55
2023-03-27T10:06:10.545Z,99124.75
2023-03-27T10:09:06.706Z,99123.51
